sensor_id;sensor_type;location;lat;lon;timestamp;P1;durP1;ratioP1;P2;durP2;ratioP2
50086;SDS011;35967;50.718;7.050;2022-10-31T00:13:27;17.20;;;4.57;;
50086;SDS011;35967;50.718;7.050;2022-10-31T00:23:31;11.70;;;4.13;;
50086;SDS011;35967;50.718;7.050;2022-10-31T00:33:37;11.50;;;4.10;;
50086;SDS011;35967;50.718;7.050;2022-10-31T00:43:47;12.50;;;4.03;;
50086;SDS011;35967;50.718;7.050;2022-10-31T00:53:54;8.43;;;3.57;;
50086;SDS011;35967;50.718;7.050;2022-10-31T01:03:59;12.67;;;3.70;;
50086;SDS011;35967;50.718;7.050;2022-10-31T01:14:08;17.67;;;3.65;;
50086;SDS011;35967;50.718;7.050;2022-10-31T01:24:13;12.33;;;3.97;;
50086;SDS011;35967;50.718;7.050;2022-10-31T01:34:16;19.87;;;4.83;;
50086;SDS011;35967;50.718;7.050;2022-10-31T01:55:09;9.03;;;3.27;;
50086;SDS011;35967;50.718;7.050;2022-10-31T02:05:18;8.97;;;2.93;;
50086;SDS011;35967;50.718;7.050;2022-10-31T02:15:25;13.03;;;3.97;;
50086;SDS011;35967;50.718;7.050;2022-10-31T02:25:41;12.90;;;4.27;;
50086;SDS011;35967;50.718;7.050;2022-10-31T02:36:03;8.70;;;3.87;;
50086;SDS011;35967;50.718;7.050;2022-10-31T02:46:17;11.53;;;3.90;;
50086;SDS011;35967;50.718;7.050;2022-10-31T02:56:30;12.10;;;4.10;;
50086;SDS011;35967;50.718;7.050;2022-10-31T03:06:35;14.50;;;4.10;;
50086;SDS011;35967;50.718;7.050;2022-10-31T03:16:46;11.03;;;3.63;;
50086;SDS011;35967;50.718;7.050;2022-10-31T03:37:00;14.13;;;4.30;;
50086;SDS011;35967;50.718;7.050;2022-10-31T03:47:16;12.90;;;4.00;;
50086;SDS011;35967;50.718;7.050;2022-10-31T03:57:26;13.27;;;3.43;;
50086;SDS011;35967;50.718;7.050;2022-10-31T04:07:41;15.97;;;3.47;;
50086;SDS011;35967;50.718;7.050;2022-10-31T04:17:53;8.83;;;3.40;;
50086;SDS011;35967;50.718;7.050;2022-10-31T04:28:01;10.03;;;3.50;;
50086;SDS011;35967;50.718;7.050;2022-10-31T04:38:07;10.33;;;3.63;;
50086;SDS011;35967;50.718;7.050;2022-10-31T04:48:17;13.43;;;4.00;;
50086;SDS011;35967;50.718;7.050;2022-10-31T04:58:33;8.63;;;3.90;;
50086;SDS011;35967;50.718;7.050;2022-10-31T05:08:40;11.77;;;3.73;;
50086;SDS011;35967;50.718;7.050;2022-10-31T05:18:46;10.20;;;3.13;;
50086;SDS011;35967;50.718;7.050;2022-10-31T05:29:08;10.97;;;3.50;;
50086;SDS011;35967;50.718;7.050;2022-10-31T05:39:14;13.47;;;3.70;;
50086;SDS011;35967;50.718;7.050;2022-10-31T05:49:22;14.13;;;3.73;;
50086;SDS011;35967;50.718;7.050;2022-10-31T06:09:59;8.17;;;3.67;;
50086;SDS011;35967;50.718;7.050;2022-10-31T06:20:05;12.97;;;4.13;;
50086;SDS011;35967;50.718;7.050;2022-10-31T06:30:20;14.93;;;4.13;;
50086;SDS011;35967;50.718;7.050;2022-10-31T06:40:28;15.73;;;5.13;;
50086;SDS011;35967;50.718;7.050;2022-10-31T06:50:49;17.30;;;4.63;;
50086;SDS011;35967;50.718;7.050;2022-10-31T07:01:03;14.37;;;4.47;;
50086;SDS011;35967;50.718;7.050;2022-10-31T07:11:07;11.60;;;4.53;;
50086;SDS011;35967;50.718;7.050;2022-10-31T07:21:15;23.67;;;5.50;;
50086;SDS011;35967;50.718;7.050;2022-10-31T07:31:20;19.77;;;5.67;;
50086;SDS011;35967;50.718;7.050;2022-10-31T07:41:36;17.30;;;5.43;;
50086;SDS011;35967;50.718;7.050;2022-10-31T07:51:56;15.13;;;5.20;;
50086;SDS011;35967;50.718;7.050;2022-10-31T08:02:26;13.33;;;6.00;;
50086;SDS011;35967;50.718;7.050;2022-10-31T08:13:21;16.40;;;5.73;;
50086;SDS011;35967;50.718;7.050;2022-10-31T08:23:27;20.47;;;6.00;;
50086;SDS011;35967;50.718;7.050;2022-10-31T08:33:34;12.57;;;5.30;;
50086;SDS011;35967;50.718;7.050;2022-10-31T08:43:54;11.77;;;4.47;;
50086;SDS011;35967;50.718;7.050;2022-10-31T08:54:00;20.87;;;7.03;;
50086;SDS011;35967;50.718;7.050;2022-10-31T09:04:22;16.27;;;6.90;;
50086;SDS011;35967;50.718;7.050;2022-10-31T09:14:37;20.43;;;7.80;;
50086;SDS011;35967;50.718;7.050;2022-10-31T09:25:01;18.73;;;7.57;;
50086;SDS011;35967;50.718;7.050;2022-10-31T09:35:07;18.57;;;6.83;;
50086;SDS011;35967;50.718;7.050;2022-10-31T09:45:26;19.60;;;6.82;;
50086;SDS011;35967;50.718;7.050;2022-10-31T09:55:41;21.10;;;8.10;;
50086;SDS011;35967;50.718;7.050;2022-10-31T10:06:01;24.38;;;7.43;;
50086;SDS011;35967;50.718;7.050;2022-10-31T10:16:49;17.67;;;6.97;;
50086;SDS011;35967;50.718;7.050;2022-10-31T10:27:09;24.90;;;7.83;;
50086;SDS011;35967;50.718;7.050;2022-10-31T10:37:29;21.80;;;7.82;;
50086;SDS011;35967;50.718;7.050;2022-10-31T10:48:35;20.23;;;7.70;;
50086;SDS011;35967;50.718;7.050;2022-10-31T10:58:45;19.57;;;7.23;;
50086;SDS011;35967;50.718;7.050;2022-10-31T11:09:09;18.43;;;6.60;;
50086;SDS011;35967;50.718;7.050;2022-10-31T11:19:14;14.57;;;5.00;;
50086;SDS011;35967;50.718;7.050;2022-10-31T11:29:24;13.73;;;4.07;;
50086;SDS011;35967;50.718;7.050;2022-10-31T11:39:28;14.27;;;3.60;;
50086;SDS011;35967;50.718;7.050;2022-10-31T11:49:34;10.13;;;3.03;;
50086;SDS011;35967;50.718;7.050;2022-10-31T11:59:49;12.13;;;3.90;;
50086;SDS011;35967;50.718;7.050;2022-10-31T12:09:58;12.27;;;4.23;;
50086;SDS011;35967;50.718;7.050;2022-10-31T12:20:12;16.83;;;4.53;;
50086;SDS011;35967;50.718;7.050;2022-10-31T12:30:30;22.60;;;3.63;;
50086;SDS011;35967;50.718;7.050;2022-10-31T12:40:53;20.03;;;4.00;;
50086;SDS011;35967;50.718;7.050;2022-10-31T12:51:13;11.77;;;3.53;;
50086;SDS011;35967;50.718;7.050;2022-10-31T13:01:29;12.13;;;3.47;;
50086;SDS011;35967;50.718;7.050;2022-10-31T13:11:41;10.33;;;3.63;;
50086;SDS011;35967;50.718;7.050;2022-10-31T13:21:51;8.50;;;3.10;;
50086;SDS011;35967;50.718;7.050;2022-10-31T13:32:03;15.20;;;3.80;;
50086;SDS011;35967;50.718;7.050;2022-10-31T13:42:10;8.77;;;3.47;;
50086;SDS011;35967;50.718;7.050;2022-10-31T13:52:28;11.93;;;3.17;;
50086;SDS011;35967;50.718;7.050;2022-10-31T14:02:33;17.23;;;3.10;;
50086;SDS011;35967;50.718;7.050;2022-10-31T14:12:41;7.87;;;2.93;;
50086;SDS011;35967;50.718;7.050;2022-10-31T14:32:53;14.03;;;3.47;;
50086;SDS011;35967;50.718;7.050;2022-10-31T14:53:22;9.87;;;2.77;;
50086;SDS011;35967;50.718;7.050;2022-10-31T15:03:29;18.30;;;3.17;;
50086;SDS011;35967;50.718;7.050;2022-10-31T15:13:40;18.75;;;3.25;;
50086;SDS011;35967;50.718;7.050;2022-10-31T15:23:45;10.57;;;3.73;;
50086;SDS011;35967;50.718;7.050;2022-10-31T15:33:50;10.30;;;2.80;;
50086;SDS011;35967;50.718;7.050;2022-10-31T15:43:56;14.13;;;3.53;;
50086;SDS011;35967;50.718;7.050;2022-10-31T15:54:10;14.77;;;2.80;;
50086;SDS011;35967;50.718;7.050;2022-10-31T16:04:20;17.00;;;3.30;;
50086;SDS011;35967;50.718;7.050;2022-10-31T16:14:27;12.93;;;3.20;;
50086;SDS011;35967;50.718;7.050;2022-10-31T16:34:44;12.00;;;2.70;;
50086;SDS011;35967;50.718;7.050;2022-10-31T16:44:47;13.27;;;2.60;;
50086;SDS011;35967;50.718;7.050;2022-10-31T16:54:52;9.23;;;2.57;;
50086;SDS011;35967;50.718;7.050;2022-10-31T17:04:56;10.80;;;2.90;;
50086;SDS011;35967;50.718;7.050;2022-10-31T17:15:00;12.83;;;2.83;;
50086;SDS011;35967;50.718;7.050;2022-10-31T17:25:05;11.93;;;3.30;;
50086;SDS011;35967;50.718;7.050;2022-10-31T17:35:14;12.97;;;3.13;;
50086;SDS011;35967;50.718;7.050;2022-10-31T17:45:25;11.70;;;3.10;;
50086;SDS011;35967;50.718;7.050;2022-10-31T17:55:30;11.90;;;2.70;;
50086;SDS011;35967;50.718;7.050;2022-10-31T18:06:03;16.00;;;3.47;;
50086;SDS011;35967;50.718;7.050;2022-10-31T18:16:34;11.67;;;3.33;;
50086;SDS011;35967;50.718;7.050;2022-10-31T18:37:55;16.07;;;3.00;;
50086;SDS011;35967;50.718;7.050;2022-10-31T18:48:12;16.63;;;2.83;;
50086;SDS011;35967;50.718;7.050;2022-10-31T18:58:27;12.40;;;2.77;;
50086;SDS011;35967;50.718;7.050;2022-10-31T19:08:54;12.37;;;2.70;;
50086;SDS011;35967;50.718;7.050;2022-10-31T19:19:47;10.90;;;3.17;;
50086;SDS011;35967;50.718;7.050;2022-10-31T19:29:56;20.30;;;3.50;;
50086;SDS011;35967;50.718;7.050;2022-10-31T19:40:15;14.50;;;2.80;;
50086;SDS011;35967;50.718;7.050;2022-10-31T19:50:27;10.17;;;3.60;;
50086;SDS011;35967;50.718;7.050;2022-10-31T20:00:45;12.27;;;3.73;;
50086;SDS011;35967;50.718;7.050;2022-10-31T20:10:52;8.03;;;2.77;;
50086;SDS011;35967;50.718;7.050;2022-10-31T20:21:01;12.83;;;4.13;;
50086;SDS011;35967;50.718;7.050;2022-10-31T20:31:16;14.90;;;3.53;;
50086;SDS011;35967;50.718;7.050;2022-10-31T20:41:37;17.30;;;4.83;;
50086;SDS011;35967;50.718;7.050;2022-10-31T20:51:49;13.90;;;3.53;;
50086;SDS011;35967;50.718;7.050;2022-10-31T21:02:03;12.93;;;3.90;;
50086;SDS011;35967;50.718;7.050;2022-10-31T21:23:43;12.27;;;3.43;;
50086;SDS011;35967;50.718;7.050;2022-10-31T21:33:47;11.80;;;3.17;;
50086;SDS011;35967;50.718;7.050;2022-10-31T21:43:51;12.50;;;2.90;;
50086;SDS011;35967;50.718;7.050;2022-10-31T21:53:55;11.10;;;4.03;;
50086;SDS011;35967;50.718;7.050;2022-10-31T22:04:18;15.30;;;3.90;;
50086;SDS011;35967;50.718;7.050;2022-10-31T22:14:21;12.60;;;3.20;;
50086;SDS011;35967;50.718;7.050;2022-10-31T22:24:25;10.13;;;3.17;;
50086;SDS011;35967;50.718;7.050;2022-10-31T22:34:28;11.30;;;3.00;;
50086;SDS011;35967;50.718;7.050;2022-10-31T22:44:33;9.03;;;3.20;;
50086;SDS011;35967;50.718;7.050;2022-10-31T22:54:36;9.37;;;3.07;;
50086;SDS011;35967;50.718;7.050;2022-10-31T23:04:40;11.43;;;2.77;;
50086;SDS011;35967;50.718;7.050;2022-10-31T23:14:43;15.20;;;2.73;;
50086;SDS011;35967;50.718;7.050;2022-10-31T23:24:47;10.37;;;2.77;;
50086;SDS011;35967;50.718;7.050;2022-10-31T23:34:52;13.17;;;2.90;;
50086;SDS011;35967;50.718;7.050;2022-10-31T23:44:58;18.30;;;2.57;;
50086;SDS011;35967;50.718;7.050;2022-10-31T23:55:01;10.43;;;2.60;;
